Time;durP1;ratioP1;P1;durP2;ratioP2;P2;SDS_P1;SDS_P2;PMS_P1;PMS_P2;Temp;Humidity;BMP_temperature;BMP_pressure;BME280_temperature;BME280_humidity;BME280_pressure;Samples;Min_cycle;Max_cycle;Signal;HPM_P1;HPM_P2
2023/05/17 00:04:52;;;;;;;;;;;18.90;57.70;;;;;;10413231;28;93790;-62
2023/05/17 00:09:54;;;;;;;;;;;18.80;57.70;;;;;;10413395;28;93598;-62
2023/05/17 00:14:55;;;;;;;;;;;18.80;57.70;;;;;;10409174;28;96902;-62
2023/05/17 00:19:57;;;;;;;;;;;18.80;57.70;;;;;;10413473;28;94500;-63
2023/05/17 00:24:59;;;;;;;;;;;18.80;57.80;;;;;;10394050;28;93707;-62
2023/05/17 00:30:01;;;;;;;;;;;18.80;57.80;;;;;;10412587;28;93531;-63
2023/05/17 00:35:03;;;;;;;;;;;18.80;57.80;;;;;;10395049;28;94470;-63
2023/05/17 00:40:05;;;;;;;;;;;18.80;57.90;;;;;;10411034;28;93607;-62
2023/05/17 00:45:07;;;;;;;;;;;18.80;57.90;;;;;;10412295;28;94349;-62
2023/05/17 00:50:10;;;;;;;;;;;18.70;57.90;;;;;;10412162;28;93741;-62
2023/05/17 00:55:12;;;;;;;;;;;18.80;57.90;;;;;;10412474;28;93492;-63
2023/05/17 01:00:14;;;;;;;;;;;18.80;58.00;;;;;;10411508;28;93520;-62
2023/05/17 01:05:15;;;;;;;;;;;18.70;57.90;;;;;;10409372;28;96987;-62
2023/05/17 01:10:17;;;;;;;;;;;18.80;58.00;;;;;;10411934;28;92733;-62
2023/05/17 01:15:24;;;;;;;;;;;18.80;57.90;;;;;;10411326;28;94470;-62
2023/05/17 01:20:28;;;;;;;;;;;18.80;57.90;;;;;;10411502;28;94892;-62
2023/05/17 01:25:48;;;;;;;;;;;18.80;57.80;;;;;;10415196;27;94469;-62
2023/05/17 01:30:50;;;;;;;;;;;18.80;57.70;;;;;;10418603;28;94685;-63
2023/05/17 01:35:52;;;;;;;;;;;18.80;57.60;;;;;;10419053;28;93451;-63
2023/05/17 01:41:06;;;;;;;;;;;18.80;57.60;;;;;;10418910;28;92739;-63
2023/05/17 01:46:13;;;;;;;;;;;18.80;57.60;;;;;;10401111;28;94556;-63
2023/05/17 01:51:17;;;;;;;;;;;18.80;57.40;;;;;;10417968;28;93556;-63
2023/05/17 01:56:20;;;;;;;;;;;18.80;57.30;;;;;;10415313;28;95844;-62
2023/05/17 02:01:23;;;;;;;;;;;18.80;57.30;;;;;;10417556;28;94587;-63
2023/05/17 02:06:24;;;;;;;;;;;18.80;57.30;;;;;;10417243;28;93521;-62
2023/05/17 02:11:26;;;;;;;;;;;18.80;57.10;;;;;;10417398;28;93622;-62
2023/05/17 02:16:28;;;;;;;;;;;18.80;57.10;;;;;;10416358;28;92815;-63
2023/05/17 02:21:30;;;;;;;;;;;18.80;57.10;;;;;;10417496;28;93524;-63
2023/05/17 02:26:31;;;;;;;;;;;18.80;57.00;;;;;;10416078;28;93515;-62
2023/05/17 02:31:33;;;;;;;;;;;18.80;57.00;;;;;;10417442;28;93750;-62
2023/05/17 02:36:35;;;;;;;;;;;18.70;56.90;;;;;;10415906;28;94513;-61
2023/05/17 02:41:36;;;;;;;;;;;18.70;57.00;;;;;;10418091;28;96103;-62
2023/05/17 02:46:38;;;;;;;;;;;18.70;56.80;;;;;;10412688;28;97013;-62
2023/05/17 02:51:40;;;;;;;;;;;18.70;56.90;;;;;;10397299;28;94155;-63
2023/05/17 02:56:41;;;;;;;;;;;18.70;57.70;;;;;;10415597;28;93977;-62
2023/05/17 03:01:43;;;;;;;;;;;18.70;56.80;;;;;;10414175;28;94391;-62
2023/05/17 03:06:45;;;;;;;;;;;18.70;56.80;;;;;;10415667;28;93549;-62
2023/05/17 03:11:47;;;;;;;;;;;18.70;56.80;;;;;;10415257;28;94494;-62
2023/05/17 03:16:48;;;;;;;;;;;18.70;56.80;;;;;;10415062;28;94420;-62
2023/05/17 03:21:50;;;;;;;;;;;18.60;56.70;;;;;;10415666;28;93826;-63
2023/05/17 03:26:52;;;;;;;;;;;18.60;56.80;;;;;;10414487;28;94596;-62
2023/05/17 03:31:53;;;;;;;;;;;18.60;56.70;;;;;;10395925;28;93524;-62
2023/05/17 03:36:55;;;;;;;;;;;18.60;56.80;;;;;;10412716;28;95795;-63
2023/05/17 03:41:57;;;;;;;;;;;18.60;56.80;;;;;;10414591;28;94845;-62
2023/05/17 05:04:37;;;;;;;;;;;18.50;57.30;;;;;;10201537;28;92907;-69
2023/05/17 05:09:39;;;;;;;;;;;18.50;57.60;;;;;;10214146;28;93726;-69
2023/05/17 05:14:41;;;;;;;;;;;18.50;57.30;;;;;;10214557;28;94430;-69
2023/05/17 05:19:43;;;;;;;;;;;18.50;57.20;;;;;;10181428;28;94151;-69
2023/05/17 05:24:44;;;;;;;;;;;18.40;57.00;;;;;;10212984;28;93911;-69
2023/05/17 05:29:46;;;;;;;;;;;18.50;57.00;;;;;;10214461;28;94599;-69
2023/05/17 05:34:48;;;;;;;;;;;18.50;57.00;;;;;;10210521;28;95942;-69
2023/05/17 05:39:50;;;;;;;;;;;18.50;57.00;;;;;;10195267;28;93562;-69
2023/05/17 05:44:51;;;;;;;;;;;18.50;56.90;;;;;;10213136;28;94528;-69
2023/05/17 05:49:53;;;;;;;;;;;18.50;57.00;;;;;;10209503;28;93713;-69
2023/05/17 05:54:55;;;;;;;;;;;18.50;56.90;;;;;;10194274;28;94447;-69
2023/05/17 05:59:56;;;;;;;;;;;18.50;56.80;;;;;;10212357;28;93695;-69
2023/05/17 06:04:58;;;;;;;;;;;18.50;56.80;;;;;;10212746;28;94839;-69
2023/05/17 06:10:00;;;;;;;;;;;18.50;56.70;;;;;;10194300;28;93128;-69
2023/05/17 06:15:02;;;;;;;;;;;18.50;56.30;;;;;;10213222;28;94512;-69
2023/05/17 06:20:04;;;;;;;;;;;18.50;56.00;;;;;;10212396;28;94500;-69
2023/05/17 06:25:06;;;;;;;;;;;18.50;55.90;;;;;;10209331;28;96185;-69
2023/05/17 06:30:08;;;;;;;;;;;18.60;55.90;;;;;;10212933;28;93402;-69
2023/05/17 06:35:10;;;;;;;;;;;18.60;55.70;;;;;;10212625;28;93611;-69
2023/05/17 06:40:11;;;;;;;;;;;18.60;55.60;;;;;;10213026;28;93251;-69
2023/05/17 06:45:17;;;;;;;;;;;18.60;55.60;;;;;;10212208;28;92958;-70
2023/05/17 06:50:19;;;;;;;;;;;18.70;55.60;;;;;;10210608;28;93571;-69
2023/05/17 06:55:21;;;;;;;;;;;18.70;55.50;;;;;;10211644;28;94693;-69
2023/05/17 07:00:23;;;;;;;;;;;18.70;55.30;;;;;;10194546;28;93861;-69
2023/05/17 07:05:27;;;;;;;;;;;18.70;55.20;;;;;;10210839;28;94076;-69
2023/05/17 07:10:29;;;;;;;;;;;18.70;55.10;;;;;;10210599;28;93470;-70
2023/05/17 07:15:31;;;;;;;;;;;18.70;55.00;;;;;;10208589;28;96871;-69
2023/05/17 07:20:33;;;;;;;;;;;18.70;54.80;;;;;;10210513;28;92495;-69
2023/05/17 07:25:37;;;;;;;;;;;18.70;54.70;;;;;;10210306;28;94659;-69
2023/05/17 07:30:39;;;;;;;;;;;18.70;54.80;;;;;;10210485;28;93900;-69
2023/05/17 07:35:41;;;;;;;;;;;18.70;54.50;;;;;;10209897;28;93482;-69
2023/05/17 07:40:43;;;;;;;;;;;18.70;54.70;;;;;;10191974;28;94903;-69
2023/05/17 07:45:44;;;;;;;;;;;18.80;54.60;;;;;;10209860;28;93606;-69
2023/05/17 07:50:47;;;;;;;;;;;18.80;54.60;;;;;;10210172;28;93093;-69
2023/05/17 07:55:49;;;;;;;;;;;18.70;54.50;;;;;;10209711;28;94756;-69
2023/05/17 08:00:51;;;;;;;;;;;18.80;54.20;;;;;;10191736;28;93514;-69
2023/05/17 08:05:53;;;;;;;;;;;18.80;54.10;;;;;;10189323;28;96916;-69
2023/05/17 08:10:55;;;;;;;;;;;18.80;54.10;;;;;;10209444;28;93523;-69
2023/05/17 08:16:01;;;;;;;;;;;18.80;53.90;;;;;;10191430;28;94683;-69
2023/05/17 08:21:15;;;;;;;;;;;18.80;53.90;;;;;;10208580;28;93982;-69
2023/05/17 08:26:17;;;;;;;;;;;18.80;53.70;;;;;;10208163;28;93512;-69
2023/05/17 08:31:19;;;;;;;;;;;18.70;53.80;;;;;;10209284;28;94455;-69
2023/05/17 08:36:21;;;;;;;;;;;18.80;53.70;;;;;;10207212;28;94822;-69
2023/05/17 08:41:23;;;;;;;;;;;18.80;53.60;;;;;;10209107;28;93735;-69
2023/05/17 08:46:25;;;;;;;;;;;18.80;53.90;;;;;;10207974;28;94686;-69
2023/05/17 08:51:27;;;;;;;;;;;18.80;54.00;;;;;;10206815;28;93122;-69
2023/05/17 08:56:31;;;;;;;;;;;18.70;53.80;;;;;;10205177;28;96103;-70
2023/05/17 09:01:33;;;;;;;;;;;18.80;54.70;;;;;;10189684;28;94438;-69
2023/05/17 09:06:34;;;;;;;;;;;18.80;53.80;;;;;;10207782;28;93299;-69
2023/05/17 09:11:37;;;;;;;;;;;18.80;53.80;;;;;;10207797;28;93739;-69
2023/05/17 09:16:39;;;;;;;;;;;18.80;53.70;;;;;;10207459;28;94823;-69
2023/05/17 09:21:44;;;;;;;;;;;18.80;53.90;;;;;;10207042;28;94057;-70
2023/05/17 09:26:46;;;;;;;;;;;18.80;53.90;;;;;;10207165;28;94335;-69
2023/05/17 09:31:48;;;;;;;;;;;18.80;54.00;;;;;;10190181;28;92820;-69
2023/05/17 09:36:50;;;;;;;;;;;18.80;54.00;;;;;;10206753;28;94595;-69
2023/05/17 09:41:55;;;;;;;;;;;18.80;53.90;;;;;;10207198;28;94665;-68
2023/05/17 09:46:57;;;;;;;;;;;18.80;53.60;;;;;;10208779;28;96727;-69
2023/05/17 09:52:05;;;;;;;;;;;18.80;53.50;;;;;;10213235;28;93585;-69
2023/05/17 09:57:09;;;;;;;;;;;18.90;52.70;;;;;;10213009;28;94559;-69
2023/05/17 10:02:16;;;;;;;;;;;18.90;52.90;;;;;;10213130;28;96879;-69
2023/05/17 10:07:19;;;;;;;;;;;19.00;53.40;;;;;;10212945;28;93560;-70
2023/05/17 10:12:22;;;;;;;;;;;19.00;52.80;;;;;;10210269;28;93738;-69
2023/05/17 10:17:28;;;;;;;;;;;19.00;53.50;;;;;;10189365;28;93822;-69
2023/05/17 10:22:30;;;;;;;;;;;19.10;53.10;;;;;;10195481;28;93667;-69
2023/05/17 10:27:32;;;;;;;;;;;19.10;53.70;;;;;;10194693;28;93704;-69
2023/05/17 10:32:35;;;;;;;;;;;19.00;52.70;;;;;;10211635;28;94616;-69
2023/05/17 10:37:37;;;;;;;;;;;19.00;52.70;;;;;;10209119;28;95871;-69
2023/05/17 10:42:44;;;;;;;;;;;19.00;52.70;;;;;;10211444;28;93657;-69
2023/05/17 10:47:47;;;;;;;;;;;19.10;52.80;;;;;;10211551;28;93583;-69
2023/05/17 10:52:49;;;;;;;;;;;19.10;52.60;;;;;;10210483;28;94436;-69
2023/05/17 10:58:09;;;;;;;;;;;19.10;52.60;;;;;;10210837;28;94964;-69
2023/05/17 11:03:12;;;;;;;;;;;19.00;52.60;;;;;;10211813;28;97054;-69
2023/05/17 11:08:15;;;;;;;;;;;19.00;52.70;;;;;;10193268;28;93487;-69
2023/05/17 11:13:21;;;;;;;;;;;19.00;52.80;;;;;;10193993;28;93805;-69
2023/05/17 11:18:23;;;;;;;;;;;19.00;52.60;;;;;;10192941;28;93717;-69
2023/05/17 11:23:34;;;;;;;;;;;19.00;52.50;;;;;;10211000;28;93442;-69
2023/05/17 11:28:37;;;;;;;;;;;19.00;52.70;;;;;;10208338;28;95856;-69
2023/05/17 11:33:43;;;;;;;;;;;19.00;52.50;;;;;;10210328;28;94499;-69
2023/05/17 11:39:04;;;;;;;;;;;19.00;52.50;;;;;;10209581;28;93499;-69
2023/05/17 11:44:09;;;;;;;;;;;19.00;52.60;;;;;;10210070;28;94485;-69
2023/05/17 11:49:12;;;;;;;;;;;19.00;52.80;;;;;;10209111;28;94701;-69
2023/05/17 11:54:24;;;;;;;;;;;19.00;52.70;;;;;;10210528;28;92559;-69
2023/05/17 11:59:26;;;;;;;;;;;19.00;52.80;;;;;;10209201;28;94536;-69
2023/05/17 12:04:27;;;;;;;;;;;19.00;52.50;;;;;;10193076;28;93105;-69
2023/05/17 12:09:31;;;;;;;;;;;19.00;52.40;;;;;;10208454;28;93422;-69
2023/05/17 12:14:33;;;;;;;;;;;19.00;52.60;;;;;;10192215;28;94578;-69
2023/05/17 12:19:35;;;;;;;;;;;19.00;52.80;;;;;;10206803;28;97015;-69
2023/05/17 12:24:37;;;;;;;;;;;19.00;52.80;;;;;;10207772;28;93667;-69
2023/05/17 12:29:39;;;;;;;;;;;19.00;52.70;;;;;;10208504;28;93707;-69
2023/05/17 12:34:41;;;;;;;;;;;19.00;52.80;;;;;;10208231;28;94234;-69
2023/05/17 12:39:43;;;;;;;;;;;18.90;52.80;;;;;;10189888;28;94009;-69
2023/05/17 12:44:45;;;;;;;;;;;19.00;53.10;;;;;;10207533;28;93535;-69
2023/05/17 12:49:56;;;;;;;;;;;19.00;53.10;;;;;;10190163;28;94952;-69
2023/05/17 12:54:57;;;;;;;;;;;19.00;53.00;;;;;;10208967;28;93909;-69
2023/05/17 13:00:05;;;;;;;;;;;19.00;52.60;;;;;;10207734;28;94187;-69
2023/05/17 13:05:23;;;;;;;;;;;19.10;53.00;;;;;;10207879;28;93693;-69
2023/05/17 13:10:25;;;;;;;;;;;19.10;53.00;;;;;;10204492;28;96739;-69
2023/05/17 13:15:32;;;;;;;;;;;19.10;52.80;;;;;;10207265;28;94566;-69
2023/05/17 13:20:34;;;;;;;;;;;19.20;52.40;;;;;;10209216;28;94514;-68
2023/05/17 13:25:35;;;;;;;;;;;19.20;52.70;;;;;;10213745;28;93536;-71
2023/05/17 13:30:37;;;;;;;;;;;19.10;52.30;;;;;;10196097;28;94571;-70
2023/05/17 13:35:40;;;;;;;;;;;19.10;52.20;;;;;;10214176;28;94182;-70
2023/05/17 13:40:42;;;;;;;;;;;19.20;52.30;;;;;;10213271;28;93667;-70
2023/05/17 13:45:44;;;;;;;;;;;19.20;52.40;;;;;;10214456;28;93930;-70
2023/05/17 13:50:46;;;;;;;;;;;19.10;52.30;;;;;;10212019;28;93653;-71
2023/05/17 13:55:47;;;;;;;;;;;19.20;52.30;;;;;;10212615;28;94585;-71
2023/05/17 14:00:50;;;;;;;;;;;19.10;52.00;;;;;;10210198;28;97199;-71
2023/05/17 14:05:52;;;;;;;;;;;19.10;52.10;;;;;;10212769;28;93696;-70
2023/05/17 14:10:54;;;;;;;;;;;19.10;52.00;;;;;;10212941;28;94364;-70
2023/05/17 14:15:56;;;;;;;;;;;19.10;52.00;;;;;;10212620;28;94586;-70
2023/05/17 14:20:58;;;;;;;;;;;19.10;52.20;;;;;;10212137;28;94521;-70
2023/05/17 14:26:01;;;;;;;;;;;19.10;52.20;;;;;;10212235;28;93524;-70
2023/05/17 14:31:06;;;;;;;;;;;19.10;52.00;;;;;;10211361;28;93741;-70
2023/05/17 14:36:08;;;;;;;;;;;19.10;51.90;;;;;;10212902;28;92949;-70
2023/05/17 14:41:12;;;;;;;;;;;19.10;52.30;;;;;;10194527;28;92483;-70
2023/05/17 14:46:15;;;;;;;;;;;19.00;52.30;;;;;;10212608;28;94328;-70
2023/05/17 14:51:17;;;;;;;;;;;19.10;52.30;;;;;;10209085;28;96857;-70
2023/05/17 14:56:19;;;;;;;;;;;19.00;52.30;;;;;;10211019;28;93479;-70
2023/05/17 15:01:21;;;;;;;;;;;19.00;52.30;;;;;;10210981;28;93647;-70
2023/05/17 15:06:24;;;;;;;;;;;19.00;52.50;;;;;;10210225;28;94281;-70
2023/05/17 15:11:26;;;;;;;;;;;18.90;52.50;;;;;;10193399;28;93502;-68
2023/05/17 15:16:27;;;;;;;;;;;18.90;52.50;;;;;;10211140;28;94583;-69
2023/05/17 15:21:30;;;;;;;;;;;19.00;53.10;;;;;;10210991;28;94549;-69
2023/05/17 15:26:31;;;;;;;;;;;19.00;53.00;;;;;;10210385;28;92868;-68
2023/05/17 15:31:33;;;;;;;;;;;19.10;53.30;;;;;;10210489;28;94491;-67
2023/05/17 15:36:35;;;;;;;;;;;19.10;53.50;;;;;;10209163;28;92650;-67
2023/05/17 15:41:37;;;;;;;;;;;19.20;53.60;;;;;;10189900;28;97016;-66
2023/05/17 15:46:39;;;;;;;;;;;19.30;53.70;;;;;;10208371;28;93523;-67
2023/05/17 15:51:41;;;;;;;;;;;19.50;53.90;;;;;;10208480;28;94706;-67
2023/05/17 15:56:43;;;;;;;;;;;19.60;55.50;;;;;;10190903;28;93959;-71
2023/05/17 16:01:45;;;;;;;;;;;19.90;57.70;;;;;;10208910;28;94601;-67
2023/05/17 16:06:46;;;;;;;;;;;20.10;62.30;;;;;;10208507;28;92635;-70
2023/05/17 16:11:48;;;;;;;;;;;20.40;58.30;;;;;;10191042;28;94549;-67
2023/05/17 16:16:50;;;;;;;;;;;20.50;58.80;;;;;;10207114;28;94025;-71
2023/05/17 16:21:52;;;;;;;;;;;20.70;61.60;;;;;;10204480;28;93015;-69
2023/05/17 16:26:54;;;;;;;;;;;20.80;59.60;;;;;;10204582;28;93886;-67
2023/05/17 16:31:55;;;;;;;;;;;20.80;61.10;;;;;;10204770;28;96113;-67
2023/05/17 16:36:57;;;;;;;;;;;20.90;59.60;;;;;;10207980;28;93153;-67
2023/05/17 16:41:59;;;;;;;;;;;20.80;59.50;;;;;;10206884;28;92791;-67
2023/05/17 16:47:00;;;;;;;;;;;20.80;60.20;;;;;;10206828;28;93729;-68
2023/05/17 16:52:02;;;;;;;;;;;20.70;59.60;;;;;;10207346;28;94917;-68
2023/05/17 16:57:04;;;;;;;;;;;20.70;59.70;;;;;;10206170;28;94500;-68
2023/05/17 17:02:08;;;;;;;;;;;20.60;59.70;;;;;;10207872;28;94091;-69
2023/05/17 17:07:10;;;;;;;;;;;20.60;59.70;;;;;;10208595;28;93674;-68
2023/05/17 17:12:13;;;;;;;;;;;20.60;59.40;;;;;;10206415;28;93498;-68
2023/05/17 17:17:25;;;;;;;;;;;20.60;59.80;;;;;;10207427;28;93413;-68
2023/05/17 17:22:27;;;;;;;;;;;20.60;59.90;;;;;;10204970;28;96934;-68
2023/05/17 17:27:28;;;;;;;;;;;20.60;60.00;;;;;;10207990;28;93704;-68
2023/05/17 17:32:30;;;;;;;;;;;20.60;60.00;;;;;;10205559;28;93554;-68
2023/05/17 17:37:32;;;;;;;;;;;20.60;60.00;;;;;;10207417;28;94406;-68
2023/05/17 17:42:34;;;;;;;;;;;20.60;60.20;;;;;;10206385;28;94384;-68
2023/05/17 17:47:35;;;;;;;;;;;20.60;59.90;;;;;;10205595;28;93693;-67
2023/05/17 17:52:37;;;;;;;;;;;20.50;59.90;;;;;;10206294;28;94582;-68
2023/05/17 17:57:40;;;;;;;;;;;20.60;59.90;;;;;;10206802;28;92644;-68
2023/05/17 18:02:42;;;;;;;;;;;20.60;59.80;;;;;;10206063;28;93531;-70
2023/05/17 18:07:43;;;;;;;;;;;20.60;59.70;;;;;;10209686;28;93717;-68
2023/05/17 18:12:45;;;;;;;;;;;20.60;59.80;;;;;;10209868;28;95829;-67
2023/05/17 18:17:50;;;;;;;;;;;20.60;59.80;;;;;;10178931;28;94646;-67
2023/05/17 18:22:51;;;;;;;;;;;20.60;59.70;;;;;;10211572;28;93306;-67
2023/05/17 18:27:53;;;;;;;;;;;20.60;59.60;;;;;;10212136;28;94454;-67
2023/05/17 18:32:55;;;;;;;;;;;20.50;59.60;;;;;;10211273;28;93510;-67
2023/05/17 18:37:56;;;;;;;;;;;20.50;59.70;;;;;;10211890;28;93649;-68
2023/05/17 18:42:58;;;;;;;;;;;20.40;59.80;;;;;;10211219;28;94341;-67
2023/05/17 18:48:00;;;;;;;;;;;20.30;61.40;;;;;;10195238;28;93915;-69
2023/05/17 18:53:02;;;;;;;;;;;20.40;60.30;;;;;;10210310;28;93402;-70
2023/05/17 18:58:03;;;;;;;;;;;20.30;60.10;;;;;;10210294;28;93631;-72
2023/05/17 19:03:05;;;;;;;;;;;20.30;60.00;;;;;;10191165;28;96922;-71
2023/05/17 19:08:07;;;;;;;;;;;20.20;60.20;;;;;;10193096;28;93536;-71
2023/05/17 19:13:10;;;;;;;;;;;20.20;60.60;;;;;;10209798;28;93647;-72
2023/05/17 19:18:12;;;;;;;;;;;20.20;62.30;;;;;;10192851;28;92727;-71
2023/05/17 19:23:13;;;;;;;;;;;20.20;62.00;;;;;;10210876;28;93310;-71
2023/05/17 19:28:16;;;;;;;;;;;20.20;61.40;;;;;;10210126;28;93500;-69
2023/05/17 19:33:18;;;;;;;;;;;20.10;61.00;;;;;;10209560;28;93922;-70
2023/05/17 19:38:20;;;;;;;;;;;20.00;60.70;;;;;;10210772;28;94375;-72
2023/05/17 19:43:24;;;;;;;;;;;20.00;60.50;;;;;;10208571;28;114239;-71
2023/05/17 19:48:25;;;;;;;;;;;19.90;60.60;;;;;;10209291;28;95092;-72
2023/05/17 19:53:27;;;;;;;;;;;19.90;60.60;;;;;;10189371;28;95875;-73
2023/05/17 19:58:49;;;;;;;;;;;19.90;60.60;;;;;;10208659;28;93550;-72
2023/05/17 20:03:51;;;;;;;;;;;19.80;60.60;;;;;;10194606;28;93726;-72
2023/05/17 20:08:53;;;;;;;;;;;19.80;60.10;;;;;;10208623;28;93689;-73
2023/05/17 20:13:55;;;;;;;;;;;19.80;60.50;;;;;;10207257;28;93798;-73
2023/05/17 20:18:59;;;;;;;;;;;19.80;60.00;;;;;;10209000;28;94433;-72
2023/05/17 20:24:04;;;;;;;;;;;19.80;60.20;;;;;;10208272;28;94703;-72
2023/05/17 20:29:06;;;;;;;;;;;19.70;60.20;;;;;;10209071;28;92760;-72
2023/05/17 20:34:09;;;;;;;;;;;19.70;60.30;;;;;;10207785;28;94581;-72
2023/05/17 20:39:13;;;;;;;;;;;19.70;60.40;;;;;;10208008;28;93715;-72
2023/05/17 20:44:18;;;;;;;;;;;19.70;60.30;;;;;;10205059;28;96832;-71
2023/05/17 20:49:20;;;;;;;;;;;19.60;59.70;;;;;;10207831;28;94594;-71
2023/05/17 20:54:24;;;;;;;;;;;19.60;59.40;;;;;;10207873;28;95111;-71
2023/05/17 20:59:25;;;;;;;;;;;19.60;59.50;;;;;;10190361;28;93581;-71
2023/05/17 21:04:27;;;;;;;;;;;19.60;59.20;;;;;;10207653;28;94687;-71
2023/05/17 21:09:29;;;;;;;;;;;19.50;59.10;;;;;;10207106;28;94456;-71
2023/05/17 21:14:31;;;;;;;;;;;19.50;58.90;;;;;;10207131;28;94576;-70
2023/05/17 21:19:32;;;;;;;;;;;19.50;58.80;;;;;;10208689;28;93730;-70
2023/05/17 21:24:34;;;;;;;;;;;19.40;58.50;;;;;;10206801;28;93498;-71
2023/05/17 21:29:36;;;;;;;;;;;19.40;58.50;;;;;;10206036;28;94503;-70
2023/05/17 21:34:38;;;;;;;;;;;19.40;58.30;;;;;;10186424;28;94997;-71
2023/05/17 21:39:40;;;;;;;;;;;19.40;58.20;;;;;;10206231;28;94433;-71
2023/05/17 21:44:42;;;;;;;;;;;19.40;58.00;;;;;;10213056;28;93756;-71
2023/05/17 21:49:44;;;;;;;;;;;19.40;57.80;;;;;;10213089;28;93847;-70
2023/05/17 21:54:45;;;;;;;;;;;19.40;57.70;;;;;;10213292;28;94892;-70
2023/05/17 21:59:47;;;;;;;;;;;19.30;57.60;;;;;;10214157;28;94519;-70
2023/05/17 22:04:49;;;;;;;;;;;19.30;57.40;;;;;;10213341;28;94775;-72
2023/05/17 22:09:53;;;;;;;;;;;19.30;57.30;;;;;;10195707;28;92869;-72
2023/05/17 22:14:55;;;;;;;;;;;19.30;57.20;;;;;;10212339;28;94002;-71
2023/05/17 22:19:57;;;;;;;;;;;19.30;57.10;;;;;;10211860;28;94442;-71
2023/05/17 22:24:59;;;;;;;;;;;19.20;57.00;;;;;;10192242;28;96916;-72
2023/05/17 22:30:01;;;;;;;;;;;19.20;56.80;;;;;;10211741;28;93631;-71
2023/05/17 22:35:03;;;;;;;;;;;19.20;56.80;;;;;;10211374;28;92880;-72
2023/05/17 22:40:06;;;;;;;;;;;19.20;56.70;;;;;;10213081;28;94513;-72
2023/05/17 22:45:08;;;;;;;;;;;19.10;56.60;;;;;;10194496;28;93798;-71
2023/05/17 22:50:12;;;;;;;;;;;19.10;56.70;;;;;;10211998;28;94494;-72
2023/05/17 22:55:14;;;;;;;;;;;19.10;56.70;;;;;;10210491;28;93751;-71
2023/05/17 23:00:16;;;;;;;;;;;19.10;56.50;;;;;;10212472;28;93767;-71
2023/05/17 23:05:18;;;;;;;;;;;19.10;56.60;;;;;;10210928;28;93511;-71
2023/05/17 23:10:20;;;;;;;;;;;19.00;56.40;;;;;;10210431;28;92520;-71
2023/05/17 23:15:22;;;;;;;;;;;19.00;56.40;;;;;;10208370;28;96351;-72
2023/05/17 23:20:23;;;;;;;;;;;19.00;56.40;;;;;;10209907;28;93698;-71
2023/05/17 23:25:27;;;;;;;;;;;19.00;56.30;;;;;;10209810;28;93532;-72
2023/05/17 23:30:29;;;;;;;;;;;19.00;56.20;;;;;;10192079;28;93517;-71
2023/05/17 23:35:31;;;;;;;;;;;18.90;56.20;;;;;;10210526;28;94458;-71
2023/05/17 23:40:33;;;;;;;;;;;18.90;56.20;;;;;;10192821;28;94563;-71
2023/05/17 23:45:35;;;;;;;;;;;18.90;56.20;;;;;;10191772;28;93678;-71
2023/05/17 23:50:37;;;;;;;;;;;18.90;56.20;;;;;;10209802;28;93710;-71
2023/05/17 23:55:39;;;;;;;;;;;18.90;56.10;;;;;;10208758;28;93571;-71
